地図

経路データ

SID SEASON NUMBER BASIN SUBBASIN NAME ISO_TIME NATURE LAT LON WMO_WIND WMO_PRES WMO_AGENCY TRACK_TYPE DIST2LAND LANDFALL IFLAG USA_AGENCY USA_ATCF_ID USA_LAT USA_LON USA_RECORD USA_STATUS USA_WIND USA_PRES USA_SSHS USA_R34_NE USA_R34_SE USA_R34_SW USA_R34_NW USA_R50_NE USA_R50_SE USA_R50_SW USA_R50_NW USA_R64_NE USA_R64_SE USA_R64_SW USA_R64_NW USA_POCI USA_ROCI USA_RMW USA_EYE TOKYO_LAT TOKYO_LON TOKYO_GRADE TOKYO_WIND TOKYO_PRES TOKYO_R50_DIR TOKYO_R50_LONG TOKYO_R50_SHORT TOKYO_R30_DIR TOKYO_R30_LONG TOKYO_R30_SHORT TOKYO_LAND CMA_LAT CMA_LON CMA_CAT CMA_WIND CMA_PRES HKO_LAT HKO_LON HKO_CAT HKO_WIND HKO_PRES NEWDELHI_LAT NEWDELHI_LON NEWDELHI_GRADE NEWDELHI_WIND NEWDELHI_PRES NEWDELHI_CI NEWDELHI_DP NEWDELHI_POCI REUNION_LAT REUNION_LON REUNION_TYPE REUNION_WIND REUNION_PRES REUNION_TNUM REUNION_CI REUNION_RMW REUNION_R34_NE REUNION_R34_SE REUNION_R34_SW REUNION_R34_NW REUNION_R50_NE REUNION_R50_SE REUNION_R50_SW REUNION_R50_NW REUNION_R64_NE REUNION_R64_SE REUNION_R64_SW REUNION_R64_NW BOM_LAT BOM_LON BOM_TYPE BOM_WIND BOM_PRES BOM_TNUM BOM_CI BOM_RMW BOM_R34_NE BOM_R34_SE BOM_R34_SW BOM_R34_NW BOM_R50_NE BOM_R50_SE BOM_R50_SW BOM_R50_NW BOM_R64_NE BOM_R64_SE BOM_R64_SW BOM_R64_NW BOM_ROCI BOM_POCI BOM_EYE BOM_POS_METHOD BOM_PRES_METHOD NADI_LAT NADI_LON NADI_CAT NADI_WIND NADI_PRES WELLINGTON_LAT WELLINGTON_LON WELLINGTON_WIND WELLINGTON_PRES DS824_LAT DS824_LON DS824_STAGE DS824_WIND DS824_PRES TD9636_LAT TD9636_LON TD9636_STAGE TD9636_WIND TD9636_PRES TD9635_LAT TD9635_LON TD9635_WIND TD9635_PRES TD9635_ROCI NEUMANN_LAT NEUMANN_LON NEUMANN_CLASS NEUMANN_WIND NEUMANN_PRES MLC_LAT MLC_LON MLC_CLASS MLC_WIND MLC_PRES USA_GUST BOM_GUST BOM_GUST_PER REUNION_GUST REUNION_GUST_PER USA_SEAHGT USA_SEARAD_NE USA_SEARAD_SE USA_SEARAD_SW USA_SEARAD_NW STORM_SPEED STORM_DIR
2022261N14260 2022 55 EP MM NEWTON 2022-09-17 12:00:00 NR 14.0000 -100.000 PROVISIONAL 298 298 O_____________ nhc_working_bt EP152022 14.0000 -100.000 DB 15 -3 0 0
2022261N14260 2022 55 EP MM NEWTON 2022-09-17 15:00:00 NR 14.0000 -100.000 PROVISIONAL 298 298 P_____________ EP152022 14.0000 -100.000 DB 15 -3 0 0
2022261N14260 2022 55 EP MM NEWTON 2022-09-17 18:00:00 NR 14.0000 -100.000 PROVISIONAL 298 298 O_____________ nhc_working_bt EP152022 14.0000 -100.000 DB 15 -3 0 0
2022261N14260 2022 55 EP MM NEWTON 2022-09-17 21:00:00 NR 14.0000 -100.000 PROVISIONAL 298 298 P_____________ EP152022 14.0000 -100.000 DB 15 -3 0 0
2022261N14260 2022 55 EP MM NEWTON 2022-09-18 00:00:00 NR 14.0000 -100.000 PROVISIONAL 298 298 O_____________ nhc_working_bt EP152022 14.0000 -100.000 DB 15 -3 0 0
2022261N14260 2022 55 EP MM NEWTON 2022-09-18 03:00:00 NR 14.0000 -100.000 PROVISIONAL 298 298 P_____________ EP152022 14.0000 -100.000 DB 15 -3 0 0
2022261N14260 2022 55 EP MM NEWTON 2022-09-18 06:00:00 NR 14.0000 -100.000 PROVISIONAL 298 298 O_____________ nhc_working_bt EP152022 14.0000 -100.000 DB 15 -3 0 0
2022261N14260 2022 55 EP MM NEWTON 2022-09-18 09:00:00 NR 14.0000 -100.000 PROVISIONAL 298 298 P_____________ EP152022 14.0000 -100.000 DB 15 -3 0 0
2022261N14260 2022 55 EP MM NEWTON 2022-09-18 12:00:00 NR 14.0000 -100.000 PROVISIONAL 298 298 O_____________ nhc_working_bt EP152022 14.0000 -100.000 DB 15 -3 0 0
2022261N14260 2022 55 EP MM NEWTON 2022-09-18 15:00:00 NR 14.0000 -100.000 PROVISIONAL 298 298 P_____________ EP152022 14.0000 -100.000 DB 15 -3 0 0
2022261N14260 2022 55 EP MM NEWTON 2022-09-18 18:00:00 NR 14.0000 -100.000 PROVISIONAL 298 298 O_____________ nhc_working_bt EP152022 14.0000 -100.000 DB 15 -3 0 0
2022261N14260 2022 55 EP MM NEWTON 2022-09-18 21:00:00 NR 14.0000 -100.000 PROVISIONAL 298 298 P_____________ EP152022 14.0000 -100.000 DB 15 -3 0 0
2022261N14260 2022 55 EP MM NEWTON 2022-09-19 00:00:00 NR 14.0000 -100.000 PROVISIONAL 298 298 O_____________ nhc_working_bt EP152022 14.0000 -100.000 DB 15 -3 0 0
2022261N14260 2022 55 EP MM NEWTON 2022-09-19 03:00:00 NR 14.0000 -100.000 PROVISIONAL 298 298 P_____________ EP152022 14.0000 -100.000 DB 15 -3 0 0
2022261N14260 2022 55 EP MM NEWTON 2022-09-19 06:00:00 NR 14.0000 -100.000 PROVISIONAL 298 298 O_____________ nhc_working_bt EP152022 14.0000 -100.000 DB 15 -3 0 0
2022261N14260 2022 55 EP MM NEWTON 2022-09-19 09:00:00 NR 14.0000 -100.000 PROVISIONAL 298 298 P_____________ EP152022 14.0000 -100.000 DB 15 -3 0 0
2022261N14260 2022 55 EP MM NEWTON 2022-09-19 12:00:00 NR 14.0000 -100.000 PROVISIONAL 298 298 O_____________ nhc_working_bt EP152022 14.0000 -100.000 DB 15 -3 1 0
2022261N14260 2022 55 EP MM NEWTON 2022-09-19 15:00:00 NR 13.8800 -100.000 PROVISIONAL 307 298 P_____________ EP152022 13.8800 -100.000 DB 15 -3 0 0
2022261N14260 2022 55 EP MM NEWTON 2022-09-19 18:00:00 NR 14.0000 -100.000 PROVISIONAL 298 224 O_____________ nhc_working_bt EP152022 14.0000 -100.000 DB 15 -3 9 3
2022261N14260 2022 55 EP MM NEWTON 2022-09-19 21:00:00 NR 14.7774 -99.9478 PROVISIONAL 213 127 P_____________ EP152022 14.7774 -99.9478 DB 20 -3 16 0
2022261N14260 2022 55 EP MM NEWTON 2022-09-20 00:00:00 NR 15.6000 -100.000 PROVISIONAL 127 109 O_____________ nhc_working_bt EP152022 15.6000 -100.000 DB 25 -3 11 342
2022261N14260 2022 55 EP MM NEWTON 2022-09-20 03:00:00 NR 15.8326 -100.313 PROVISIONAL 119 116 P_____________ EP152022 15.8326 -100.313 DB 25 -3 7 294
2022261N14260 2022 55 EP MM NEWTON 2022-09-20 06:00:00 NR 15.9000 -100.700 PROVISIONAL 134 119 O_____________ nhc_working_bt EP152022 15.9000 -100.700 DB 25 -3 7 297
2022261N14260 2022 55 EP MM NEWTON 2022-09-20 09:00:00 NR 16.1499 -100.958 PROVISIONAL 123 99 P_____________ EP152022 16.1499 -100.958 DB 25 -3 7 316
2022261N14260 2022 55 EP MM NEWTON 2022-09-20 12:00:00 NR 16.4000 -101.200 PROVISIONAL 99 84 O_____________ nhc_working_bt EP152022 16.4000 -101.200 DB 25 -3 7 309
2022261N14260 2022 55 EP MM NEWTON 2022-09-20 15:00:00 NR 16.5876 -101.515 PROVISIONAL 89 89 P_____________ EP152022 16.5876 -101.515 DB 25 -3 7 298
2022261N14260 2022 55 EP MM NEWTON 2022-09-20 18:00:00 NR 16.7000 -101.800 PROVISIONAL 100 100 O_____________ nhc_working_bt EP152022 16.7000 -101.800 DB 25 -3 1010 100 50 4 290
2022261N14260 2022 55 EP MM NEWTON 2022-09-20 21:00:00 NR 16.7221 -101.905 PROVISIONAL 108 108 P_____________ EP152022 16.7221 -101.905 DB 25 -3 1010 100 50 3 270
2022261N14260 2022 55 EP MM NEWTON 2022-09-21 00:00:00 NR 16.7000 -102.100 PROVISIONAL 119 119 O_____________ nhc_working_bt EP152022 16.7000 -102.100 DB 25 1008 -3 1010 100 50 7 267
2022261N14260 2022 55 EP MM NEWTON 2022-09-21 03:00:00 NR 16.6853 -102.640 PROVISIONAL 138 138 P_____________ EP152022 16.6853 -102.640 DB 25 1008 -3 1010 100 45 12 270
2022261N14260 2022 55 EP MM NEWTON 2022-09-21 06:00:00 NR 16.7000 -103.300 PROVISIONAL 162 162 O_____________ nhc_working_bt EP152022 16.7000 -103.300 DB 25 1008 -3 1010 100 40 12 275
2022261N14260 2022 55 EP MM NEWTON 2022-09-21 09:00:00 NR 16.7773 -103.858 PROVISIONAL 173 173 P_____________ EP152022 16.7773 -103.858 DB 25 1007 -3 1010 100 40 11 281
2022261N14260 2022 55 EP MM NEWTON 2022-09-21 12:00:00 DS 16.9000 -104.400 PROVISIONAL 183 183 O_____________ nhc_working_bt EP152022 16.9000 -104.400 LO 25 1007 -3 1010 100 40 11 284
2022261N14260 2022 55 EP MM NEWTON 2022-09-21 15:00:00 DS 17.0424 -104.950 PROVISIONAL 215 208 P_____________ EP152022 17.0424 -104.950 LO 27 1007 -3 1010 100 40 10 284
2022261N14260 2022 55 EP MM NEWTON 2022-09-21 18:00:00 TS 17.1400 -105.380 PROVISIONAL 241 232 O_____________ nhc_working_bt EP152022 17.2000 -105.500 TD 30 1007 -1 1010 100 40 10 286
2022261N14260 2022 55 EP MM NEWTON 2022-09-21 21:00:00 TS 17.3328 -105.979 PROVISIONAL 247 237 P_____________ EP152022 17.3725 -106.065 TD 35 1005 0 25 25 1010 100 35 12 287
2022261N14260 2022 55 EP MM NEWTON 2022-09-22 00:00:00 TS 17.5000 -106.600 PROVISIONAL 268 268 O_____________ nhc_working_bt EP152022 17.5000 -106.600 TS 40 1004 0 50 50 1010 100 30 50 11 281
2022261N14260 2022 55 EP MM NEWTON 2022-09-22 03:00:00 TS 17.5473 -107.139 PROVISIONAL 307 307 P_____________ EP152022 17.5149 -107.088 TS 45 1002 0 50 50 1010 95 25 9 273
2022261N14260 2022 55 EP MM NEWTON 2022-09-22 06:00:00 TS 17.5556 -107.556 PROVISIONAL 337 337 O_____________ nhc_working_bt EP152022 17.5000 -107.500 TS 50 1000 0 50 20 20 50 20 1010 90 20 60 12 20 7 278
2022261N14260 2022 55 EP MM NEWTON 2022-09-22 09:00:00 TS 17.6378 -107.846 PROVISIONAL 352 352 P_____________ EP152022 17.5423 -107.815 TS 52 998 0 45 20 20 45 20 1009 95 20 12 20 5 288
2022261N14260 2022 55 EP MM NEWTON 2022-09-22 12:00:00 TS 17.7273 -108.100 PROVISIONAL 370 370 O_____________ nhc_working_bt EP152022 17.6000 -108.100 TS 55 996 0 40 20 20 40 20 1009 100 20 65 12 20 6 287
2022261N14260 2022 55 EP MM NEWTON 2022-09-22 15:00:00 TS 17.7983 -108.407 PROVISIONAL 389 389 P_____________ EP152022 17.6500 -108.450 TS 52 996 0 40 20 20 40 20 1009 105 20 12 25 6 280
2022261N14260 2022 55 EP MM NEWTON 2022-09-22 18:00:00 TS 17.8333 -108.733 PROVISIONAL 416 416 O_____________ nhc_working_bt EP152022 17.7000 -108.800 TS 50 996 0 40 20 20 40 20 1009 110 20 60 12 30 15 15 30 6 271
2022261N14260 2022 55 EP MM NEWTON 2022-09-22 21:00:00 TS 17.8091 -109.062 PROVISIONAL 451 451 P_____________ EP152022 17.7424 -109.100 TS 50 996 0 40 20 20 40 20 1008 115 17 12 30 15 15 30 6 267
2022261N14260 2022 55 EP MM NEWTON 2022-09-23 00:00:00 TS 17.8000 -109.400 PROVISIONAL 478 478 O_____________ nhc_working_bt EP152022 17.8000 -109.400 TS 50 996 0 40 20 20 40 20 1008 120 15 60 12 30 15 15 30 7 277
2022261N14260 2022 55 EP MM NEWTON 2022-09-23 03:00:00 TS 17.8876 -109.770 PROVISIONAL 509 509 P_____________ EP152022 17.9076 -109.765 TS 47 998 0 40 20 20 40 1008 120 15 12 30 15 15 30 7 287
2022261N14260 2022 55 EP MM NEWTON 2022-09-23 06:00:00 TS 18.0000 -110.100 PROVISIONAL 532 532 O_____________ nhc_working_bt EP152022 18.0000 -110.100 TS 45 1000 0 40 20 20 40 1008 120 15 55 12 30 15 15 30 6 291
2022261N14260 2022 55 EP MM NEWTON 2022-09-23 09:00:00 TS 18.0916 -110.323 PROVISIONAL 537 537 P_____________ EP152022 18.0149 -110.323 TS 45 1000 0 40 20 20 40 1008 120 15 4 289
2022261N14260 2022 55 EP MM NEWTON 2022-09-23 12:00:00 TS 18.1333 -110.500 PROVISIONAL 539 539 O_____________ nhc_working_bt EP152022 18.0000 -110.500 TS 45 1000 0 40 20 20 40 1008 120 15 55 3 261
2022261N14260 2022 55 EP MM NEWTON 2022-09-23 15:00:00 TS 18.0391 -110.685 PROVISIONAL 552 552 P_____________ EP152022 17.9624 -110.685 TS 42 1001 0 40 20 20 40 1009 110 15 4 251
2022261N14260 2022 55 EP MM NEWTON 2022-09-23 18:00:00 TS 18.0000 -110.900 PROVISIONAL 555 537 O_____________ nhc_working_bt EP152022 18.0000 -110.900 TS 40 1003 0 40 20 20 40 1010 100 15 50 12 45 15 15 45 5 291
2022261N14260 2022 55 EP MM NEWTON 2022-09-23 21:00:00 TS 18.2175 -111.185 PROVISIONAL 540 513 P_____________ EP152022 18.2275 -111.185 TS 40 1003 0 40 20 20 40 1010 100 15 12 45 17 17 45 8 311
2022261N14260 2022 55 EP MM NEWTON 2022-09-24 00:00:00 TS 18.5000 -111.500 PROVISIONAL 516 505 O_____________ nhc_working_bt EP152022 18.5000 -111.500 TS 40 1003 0 40 20 20 40 1010 100 15 50 12 45 20 20 45 7 308
2022261N14260 2022 55 EP MM NEWTON 2022-09-24 03:00:00 TS 18.6724 -111.793 PROVISIONAL 505 503 P_____________ EP152022 18.6724 -111.793 TS 37 1003 0 40 20 40 1010 100 15 12 45 20 20 45 6 298
2022261N14260 2022 55 EP MM NEWTON 2022-09-24 06:00:00 TS 18.8000 -112.100 PROVISIONAL 507 507 O_____________ nhc_working_bt EP152022 18.8000 -112.100 TS 35 1004 0 40 20 40 1010 100 15 45 12 45 20 20 45 6 291
2022261N14260 2022 55 EP MM NEWTON 2022-09-24 09:00:00 TS 18.8999 -112.428 PROVISIONAL 512 512 P_____________ EP152022 18.8999 -112.428 TS 35 1004 0 40 20 40 1010 100 15 7 287
2022261N14260 2022 55 EP MM NEWTON 2022-09-24 12:00:00 TS 19.0000 -112.800 PROVISIONAL 524 524 O_____________ nhc_working_bt EP152022 19.0000 -112.800 TS 35 1004 0 40 20 40 1010 100 15 45 8 288
2022261N14260 2022 55 EP MM NEWTON 2022-09-24 15:00:00 TS 19.1501 -113.250 PROVISIONAL 530 530 P_____________ EP152022 19.1501 -113.250 TS 32 1004 -1 1010 100 15 9 289
2022261N14260 2022 55 EP MM NEWTON 2022-09-24 18:00:00 TS 19.3000 -113.700 PROVISIONAL 556 555 O_____________ nhc_working_bt EP152022 19.3000 -113.700 TD 30 1005 -1 1010 100 15 40 8 290
2022261N14260 2022 55 EP MM NEWTON 2022-09-24 21:00:00 TS 19.4222 -114.050 PROVISIONAL 577 577 P_____________ EP152022 19.4222 -114.050 TD 30 1005 -1 1010 100 15 7 287
2022261N14260 2022 55 EP MM NEWTON 2022-09-25 00:00:00 TS 19.5000 -114.400 PROVISIONAL 593 593 O_____________ nhc_working_bt EP152022 19.5000 -114.400 TD 30 1006 -1 1010 100 15 40 8 279
2022261N14260 2022 55 EP MM NEWTON 2022-09-25 03:00:00 TS 19.5400 -114.842 PROVISIONAL 626 626 P_____________ EP152022 19.5450 -114.842 TD 30 1006 -1 1010 100 15 8 270
2022261N14260 2022 55 EP MM NEWTON 2022-09-25 06:00:00 TS 19.5000 -115.300 PROVISIONAL 665 665 O_____________ nhc_working_bt EP152022 19.5000 -115.300 TD 30 1006 -1 1010 100 15 40 8 259
2022261N14260 2022 55 EP MM NEWTON 2022-09-25 09:00:00 TS 19.3757 -115.715 PROVISIONAL 697 697 P_____________ EP152022 19.3374 -115.715 TD 30 1006 -1 1010 100 15 8 246
2022261N14260 2022 55 EP MM NEWTON 2022-09-25 12:00:00 TS 19.1667 -116.100 PROVISIONAL 740 740 O_____________ nhc_working_bt EP152022 19.1000 -116.100 TD 30 1007 -1 1011 100 15 40 8 236
2022261N14260 2022 55 EP MM NEWTON 2022-09-25 15:00:00 TS 18.9047 -116.454 PROVISIONAL 791 791 P_____________ EP152022 18.8724 -116.457 TD 27 1007 -1 1011 100 15 9 229
2022261N14260 2022 55 EP MM NEWTON 2022-09-25 18:00:00 DS 18.6000 -116.800 PROVISIONAL 837 837 O_____________ nhc_working_bt EP152022 18.6000 -116.800 LO 25 1008 -3 1011 100 15 35 9 228
2022261N14260 2022 55 EP MM NEWTON 2022-09-25 21:00:00 DS 18.2908 -117.168 PROVISIONAL 888 888 P_____________ EP152022 18.2574 -117.150 LO 25 1008 -3 1011 100 15 9 229
2022261N14260 2022 55 EP MM NEWTON 2022-09-26 00:00:00 DS 17.9804 -117.548 PROVISIONAL 934 934 O_____________ nhc_working_bt EP152022 17.9000 -117.500 LO 25 1008 -3 1011 100 15 10 231
2022261N14260 2022 55 EP MM NEWTON 2022-09-26 03:00:00 DS 17.6917 -117.940 PROVISIONAL 986 986 P_____________ EP152022 17.6000 -117.872 LO 25 1008 -3 1011 100 15 9 232
2022261N14260 2022 55 EP MM NEWTON 2022-09-26 06:00:00 DS 17.4054 -118.319 PROVISIONAL 1038 1038 O_____________ nhc_working_bt EP152022 17.3000 -118.200 LO 25 1009 -3 1011 100 15 9 229
2022261N14260 2022 55 EP MM NEWTON 2022-09-26 09:00:00 DS 17.0983 -118.651 PROVISIONAL 1091 1091 P_____________ EP152022 16.9348 -118.400 LO 25 1009 -3 1011 100 15 9 226
2022261N14260 2022 55 EP MM NEWTON 2022-09-26 12:00:00 DS 16.8020 -118.971 PROVISIONAL 1137 1137 O_____________ nhc_working_bt EP152022 16.6000 -118.600 LO 25 1009 -3 1011 100 15 9 230
2022261N14260 2022 55 EP MM NEWTON 2022-09-26 15:00:00 DS 16.5479 -119.329 PROVISIONAL 1183 1183 P_____________ EP152022 16.3926 -118.950 LO 25 1009 -3 1011 100 15 8 233
2022261N14260 2022 55 EP MM NEWTON 2022-09-26 18:00:00 DS 16.2977 -119.663 PROVISIONAL 1227 1227 O_____________ nhc_working_bt EP152022 16.2000 -119.300 LO 25 1009 -3 1011 100 15 8 227
2022261N14260 2022 55 EP MM NEWTON 2022-09-26 21:00:00 DS 16.0180 -119.929 PROVISIONAL 1267 1267 P_____________ EP152022 15.9224 -119.507 LO 25 1008 -3 1011 100 17 7 219
2022261N14260 2022 55 EP MM NEWTON 2022-09-27 00:00:00 DS 15.7210 -120.153 PROVISIONAL 1313 1313 O_____________ nhc_working_bt EP152022 15.6000 -119.700 LO 25 1008 -3 1011 100 20 8 215
2022261N14260 2022 55 EP MM NEWTON 2022-09-27 03:00:00 DS 15.4047 -120.379 PROVISIONAL 1353 1353 P_____________ EP152022 15.2275 -119.993 LO 25 1008 -3 1011 100 17 7 213
2022261N14260 2022 55 EP MM NEWTON 2022-09-27 06:00:00 DS 15.1000 -120.567 PROVISIONAL 1392 1392 O_____________ nhc_working_bt EP152022 14.9000 -120.300 LO 25 1009 -3 1011 100 15 6 206
2022261N14260 2022 55 EP MM NEWTON 2022-09-27 09:00:00 DS 14.8458 -120.667 PROVISIONAL 1425 1425 P_____________ EP152022 14.7349 -120.557 LO 25 1008 -3 1011 100 15 6 204
2022261N14260 2022 55 EP MM NEWTON 2022-09-27 12:00:00 DS 14.6000 -120.800 PROVISIONAL 1450 1450 O_____________ nhc_working_bt EP152022 14.6000 -120.800 LO 25 1008 -3 1011 100 15 7 216
2022261N14260 2022 55 EP MM NEWTON 2022-09-27 15:00:00 DS 14.3174 -121.067 PROVISIONAL 1496 1496 P_____________ EP152022 14.3350 -121.050 LO 25 1008 -3 1011 100 22 8 226
2022261N14260 2022 55 EP MM NEWTON 2022-09-27 18:00:00 DS 14.0667 -121.367 PROVISIONAL 1534 1534 O_____________ nhc_working_bt EP152022 14.1000 -121.300 LO 25 1008 -3 1011 100 30 5 236
2022261N14260 2022 55 EP MM NEWTON 2022-09-27 21:00:00 DS 14.0273 -121.505 PROVISIONAL 1549 1549 P_____________ EP152022 14.0273 -121.505 LO 25 1007 -3 1010 100 22 4 261
2022261N14260 2022 55 EP MM NEWTON 2022-09-28 00:00:00 DS 14.0000 -121.800 PROVISIONAL 1569 1569 O_____________ nhc_working_bt EP152022 14.0000 -121.800 LO 25 1007 -3 1010 100 15 8 261
2022261N14260 2022 55 EP MM NEWTON 2022-09-28 03:00:00 DS 13.9003 -122.328 PROVISIONAL 1612 1612 P_____________ EP152022 13.9003 -122.328 LO 25 1007 -3 1010 100 15 11 259
2022261N14260 2022 55 EP MM NEWTON 2022-09-28 06:00:00 DS 13.8000 -122.900 PROVISIONAL 1663 1663 O_____________ nhc_working_bt EP152022 13.8000 -122.900 LO 25 1007 -3 1010 100 15 10 259
2022261N14260 2022 55 EP MM NEWTON 2022-09-28 09:00:00 DS 13.7198 -123.330 PROVISIONAL 1700 1700 P_____________ EP152022 13.7198 -123.330 LO 25 1007 -3 1010 100 15 8 263
2022261N14260 2022 55 EP MM NEWTON 2022-09-28 12:00:00 DS 13.7000 -123.700 PROVISIONAL 1729 1729 O_____________ nhc_working_bt EP152022 13.7000 -123.700 LO 25 1007 -3 1010 100 15 7 276
2022261N14260 2022 55 EP MM NEWTON 2022-09-28 15:00:00 DS 13.7924 -124.050 PROVISIONAL 1743 1743 P_____________ EP152022 13.7924 -124.050 LO 22 1007 -3 1010 100 15 7 286
2022261N14260 2022 55 EP MM NEWTON 2022-09-28 18:00:00 DS 13.9000 -124.400 PROVISIONAL 1765 1765 O_____________ nhc_working_bt EP152022 13.9000 -124.400 LO 20 1008 -3 1010 100 15 7 281
2022261N14260 2022 55 EP MM NEWTON 2022-09-28 21:00:00 DS 13.9277 -124.788 PROVISIONAL 1796 1796 P_____________ EP152022 13.9277 -124.788 LO 20 1008 -3 1010 100 15 8 270
2022261N14260 2022 55 EP MM NEWTON 2022-09-29 00:00:00 DS 13.9000 -125.200 PROVISIONAL 1827 O_____________ nhc_working_bt EP152022 13.9000 -125.200 LO 20 1008 -3 1010 100 15 8 266

IBTrACS Databaseについて

本データベースは、米国NOAAが公開する1842年以降の世界の熱帯低気圧のベストトラックデータアーカイブInternational Best Track Archive for Climate Stewardship (IBTrACS)を、ウェブで閲覧しやすい形式に変換したものです。

最終更新日:2022-11-16